Time;durP1;ratioP1;P1;durP2;ratioP2;P2;SDS_P1;SDS_P2;PMS_P1;PMS_P2;Temp;Humidity;BMP_temperature;BMP_pressure;BME280_temperature;BME280_humidity;BME280_pressure;Samples;Min_cycle;Max_cycle;Signal;HPM_P1;HPM_P2
2022/10/10 00:01:23;;;;;;;18.77;16.40;;;;;;;;;;10098976;28;20059;-69
2022/10/10 00:06:17;;;;;;;18.17;16.42;;;;;;;;;;10100560;28;20049;-69
2022/10/10 00:11:11;;;;;;;21.40;19.13;;;;;;;;;;10114171;28;20057;-69
2022/10/10 00:16:05;;;;;;;21.13;18.92;;;;;;;;;;10106063;28;20507;-68
2022/10/10 00:20:59;;;;;;;19.15;15.77;;;;;;;;;;10096948;28;20057;-69
2022/10/10 00:25:51;;;;;;;23.42;17.05;;;;;;;;;;10096103;28;20470;-69
2022/10/10 00:30:44;;;;;;;19.55;16.70;;;;;;;;;;10103627;28;20519;-68
2022/10/10 00:35:38;;;;;;;21.77;15.80;;;;;;;;;;10104173;28;20049;-68
2022/10/10 00:40:31;;;;;;;18.17;16.33;;;;;;;;;;10103887;28;20064;-68
2022/10/10 00:45:46;;;;;;;19.60;15.00;;;;;;;;;;10103997;28;20053;-68
2022/10/10 00:50:44;;;;;;;16.73;13.75;;;;;;;;;;10101402;28;20053;-68
2022/10/10 00:55:42;;;;;;;19.98;13.93;;;;;;;;;;10102504;28;20049;-67
2022/10/10 01:00:36;;;;;;;12.13;10.57;;;;;;;;;;10103581;28;20450;-71
2022/10/10 01:05:31;;;;;;;11.05;9.73;;;;;;;;;;10098725;28;20049;-69
2022/10/10 01:10:25;;;;;;;17.77;7.90;;;;;;;;;;10102456;28;20511;-69
2022/10/10 01:15:51;;;;;;;11.77;8.13;;;;;;;;;;10099671;28;20071;-70
2022/10/10 01:20:53;;;;;;;12.75;8.23;;;;;;;;;;10104179;28;20484;-69
2022/10/10 01:26:13;;;;;;;12.93;8.88;;;;;;;;;;10083700;28;20566;-69
2022/10/10 01:31:09;;;;;;;9.40;8.45;;;;;;;;;;10082889;28;20081;-69
2022/10/10 01:36:04;;;;;;;11.90;8.27;;;;;;;;;;10082925;28;20046;-69
2022/10/10 01:41:07;;;;;;;9.07;8.10;;;;;;;;;;10081062;28;20061;-68
2022/10/10 01:46:09;;;;;;;9.18;7.93;;;;;;;;;;10089082;28;20080;-69
2022/10/10 01:51:24;;;;;;;13.25;8.20;;;;;;;;;;10094349;28;20065;-68
2022/10/10 01:56:35;;;;;;;9.50;8.05;;;;;;;;;;10092635;28;20053;-69
2022/10/10 02:01:54;;;;;;;9.20;7.97;;;;;;;;;;10104311;28;20049;-68
2022/10/10 02:06:55;;;;;;;7.93;7.13;;;;;;;;;;10092315;28;20187;-68
2022/10/10 02:11:49;;;;;;;9.52;7.38;;;;;;;;;;10086241;28;20049;-68
2022/10/10 02:16:46;;;;;;;11.20;7.60;;;;;;;;;;10105447;28;20064;-68
2022/10/10 02:21:40;;;;;;;12.45;8.00;;;;;;;;;;10096220;28;20045;-68
2022/10/10 02:26:35;;;;;;;10.40;7.50;;;;;;;;;;10102945;28;20053;-69
2022/10/10 02:31:37;;;;;;;12.90;7.75;;;;;;;;;;10103765;28;20523;-68
2022/10/10 02:36:30;;;;;;;9.45;8.13;;;;;;;;;;10099329;28;20045;-68
2022/10/10 02:41:24;;;;;;;13.82;7.85;;;;;;;;;;10102797;28;20049;-68
2022/10/10 02:46:17;;;;;;;10.73;7.93;;;;;;;;;;10109248;28;20460;-68
2022/10/10 02:51:12;;;;;;;12.82;7.68;;;;;;;;;;10099989;28;20049;-68
2022/10/10 02:56:06;;;;;;;10.43;8.45;;;;;;;;;;10111289;28;20049;-68
2022/10/10 03:01:00;;;;;;;12.30;8.35;;;;;;;;;;10097971;28;20103;-68
2022/10/10 03:05:54;;;;;;;10.18;7.78;;;;;;;;;;10100838;28;20057;-68
2022/10/10 03:10:59;;;;;;;8.73;7.75;;;;;;;;;;10098292;28;20510;-68
2022/10/10 03:15:53;;;;;;;8.98;8.07;;;;;;;;;;10108828;28;20061;-68
2022/10/10 03:20:51;;;;;;;12.85;7.78;;;;;;;;;;10111885;28;20529;-69
2022/10/10 03:25:46;;;;;;;11.82;7.28;;;;;;;;;;10108936;28;20122;-68
2022/10/10 03:30:40;;;;;;;12.55;7.63;;;;;;;;;;10102027;28;20056;-69
2022/10/10 03:35:34;;;;;;;11.45;6.57;;;;;;;;;;10097807;28;20508;-68
2022/10/10 03:40:27;;;;;;;11.30;7.10;;;;;;;;;;10102600;28;20079;-68
2022/10/10 03:45:21;;;;;;;12.55;7.82;;;;;;;;;;10106708;28;20107;-68
2022/10/10 03:50:14;;;;;;;7.90;6.80;;;;;;;;;;10093832;28;20045;-69
2022/10/10 03:55:08;;;;;;;8.30;7.15;;;;;;;;;;10102453;28;20064;-68
2022/10/10 04:00:03;;;;;;;8.75;6.80;;;;;;;;;;10103019;28;20053;-69
2022/10/10 04:04:55;;;;;;;12.13;6.63;;;;;;;;;;10108002;28;20103;-68
2022/10/10 04:09:50;;;;;;;10.13;6.85;;;;;;;;;;10107826;28;20071;-69
2022/10/10 04:14:44;;;;;;;7.80;6.60;;;;;;;;;;10094508;28;20128;-69
2022/10/10 04:19:38;;;;;;;11.38;7.68;;;;;;;;;;10095638;28;20056;-69
2022/10/10 04:24:32;;;;;;;9.70;7.22;;;;;;;;;;10105760;28;20052;-69
2022/10/10 04:29:28;;;;;;;9.18;8.15;;;;;;;;;;10108677;28;20045;-68
2022/10/10 04:34:25;;;;;;;13.05;7.65;;;;;;;;;;10096432;28;20076;-68
2022/10/10 04:39:19;;;;;;;12.82;7.95;;;;;;;;;;10103958;28;20565;-68
2022/10/10 04:44:13;;;;;;;17.52;7.70;;;;;;;;;;10106143;28;20127;-69
2022/10/10 04:49:07;;;;;;;11.15;7.25;;;;;;;;;;10104509;28;20052;-70
2022/10/10 04:54:02;;;;;;;10.95;7.45;;;;;;;;;;10104492;28;20053;-70
2022/10/10 04:58:58;;;;;;;8.10;6.65;;;;;;;;;;10102289;28;20499;-68
2022/10/10 05:03:52;;;;;;;8.18;6.75;;;;;;;;;;10091617;28;20047;-69
2022/10/10 05:08:46;;;;;;;8.02;6.97;;;;;;;;;;10083825;28;20124;-68
2022/10/10 05:13:40;;;;;;;11.02;6.82;;;;;;;;;;10088703;28;20499;-68
2022/10/10 05:18:36;;;;;;;9.57;6.72;;;;;;;;;;10106285;28;20056;-69
2022/10/10 05:23:29;;;;;;;12.20;7.15;;;;;;;;;;10095427;28;20492;-70
2022/10/10 05:28:23;;;;;;;7.82;6.55;;;;;;;;;;10106973;28;20095;-70
2022/10/10 05:33:17;;;;;;;9.38;7.47;;;;;;;;;;10103734;28;20135;-70
2022/10/10 05:38:12;;;;;;;9.98;6.38;;;;;;;;;;10091494;28;20049;-68
2022/10/10 05:43:07;;;;;;;7.15;6.43;;;;;;;;;;10100513;28;20053;-70
2022/10/10 05:48:00;;;;;;;10.45;6.97;;;;;;;;;;10097722;28;20049;-70
2022/10/10 05:52:53;;;;;;;9.93;6.82;;;;;;;;;;10099998;28;20504;-69
2022/10/10 05:57:48;;;;;;;13.95;7.65;;;;;;;;;;10108234;28;20053;-69
2022/10/10 06:02:42;;;;;;;15.65;7.07;;;;;;;;;;10114153;28;20060;-70
2022/10/10 06:07:34;;;;;;;12.82;6.65;;;;;;;;;;10101216;28;20045;-69
2022/10/10 06:12:48;;;;;;;14.40;7.55;;;;;;;;;;10106673;28;20048;-69
2022/10/10 06:17:43;;;;;;;15.82;7.75;;;;;;;;;;10109413;28;20701;-69
2022/10/10 06:22:37;;;;;;;10.90;7.10;;;;;;;;;;10103359;28;20504;-69
2022/10/10 06:27:31;;;;;;;13.85;7.32;;;;;;;;;;10102822;28;20048;-69
2022/10/10 06:32:25;;;;;;;16.48;7.53;;;;;;;;;;10102653;28;20137;-68
2022/10/10 06:37:19;;;;;;;15.77;6.57;;;;;;;;;;10098528;28;20049;-68
2022/10/10 06:42:13;;;;;;;13.38;6.30;;;;;;;;;;10098350;28;20049;-68
2022/10/10 06:47:07;;;;;;;11.57;6.40;;;;;;;;;;10105632;28;20060;-68
2022/10/10 06:52:00;;;;;;;9.23;6.18;;;;;;;;;;10100704;28;20136;-68
2022/10/10 06:56:54;;;;;;;13.50;7.47;;;;;;;;;;10107163;28;20060;-68
2022/10/10 07:01:48;;;;;;;14.25;6.18;;;;;;;;;;10086212;28;20510;-68
2022/10/10 07:06:43;;;;;;;9.40;6.72;;;;;;;;;;10089515;28;20547;-68
2022/10/10 07:11:38;;;;;;;12.32;6.22;;;;;;;;;;10087869;28;20060;-68
2022/10/10 07:16:32;;;;;;;15.35;7.07;;;;;;;;;;10096672;28;20063;-68
2022/10/10 07:21:26;;;;;;;7.38;6.00;;;;;;;;;;10107440;28;20064;-68
2022/10/10 07:26:21;;;;;;;13.18;6.05;;;;;;;;;;10100122;28;20119;-68
2022/10/10 07:31:15;;;;;;;7.55;6.20;;;;;;;;;;10108470;28;20496;-68
2022/10/10 07:36:08;;;;;;;10.40;6.18;;;;;;;;;;10092817;28;20530;-68
2022/10/10 07:41:08;;;;;;;14.90;6.45;;;;;;;;;;10104191;28;20052;-68
2022/10/10 07:46:02;;;;;;;7.93;6.10;;;;;;;;;;10093521;28;20060;-68
2022/10/10 07:51:00;;;;;;;16.05;7.47;;;;;;;;;;10102265;28;20120;-68
2022/10/10 07:55:55;;;;;;;11.48;7.68;;;;;;;;;;10103492;28;20087;-68
2022/10/10 08:00:48;;;;;;;15.95;7.85;;;;;;;;;;10096358;28;20048;-69
2022/10/10 08:05:43;;;;;;;8.40;7.20;;;;;;;;;;10106200;28;20527;-68
2022/10/10 08:10:37;;;;;;;10.77;6.57;;;;;;;;;;10096588;28;20135;-69
2022/10/10 08:15:31;;;;;;;12.07;7.88;;;;;;;;;;10100211;28;20057;-68
2022/10/10 08:20:26;;;;;;;11.77;8.32;;;;;;;;;;10091984;28;20400;-69
2022/10/10 08:25:19;;;;;;;11.32;7.25;;;;;;;;;;10099273;28;20044;-67
2022/10/10 08:30:14;;;;;;;9.45;7.45;;;;;;;;;;10094912;28;20037;-69
2022/10/10 08:35:08;;;;;;;12.55;7.32;;;;;;;;;;10089594;28;20423;-68
2022/10/10 08:40:01;;;;;;;13.88;8.60;;;;;;;;;;10098910;28;20060;-68
2022/10/10 08:44:59;;;;;;;10.57;7.95;;;;;;;;;;10090252;28;20053;-68
2022/10/10 08:50:05;;;;;;;19.50;8.50;;;;;;;;;;10094182;28;20048;-68
2022/10/10 08:55:02;;;;;;;13.18;7.63;;;;;;;;;;10096613;28;20101;-68
2022/10/10 09:00:01;;;;;;;17.02;7.43;;;;;;;;;;10094149;28;20111;-68
2022/10/10 09:04:56;;;;;;;11.68;7.75;;;;;;;;;;10095666;28;20056;-68
2022/10/10 09:10:23;;;;;;;14.45;7.70;;;;;;;;;;10081974;28;20054;-68
2022/10/10 09:15:51;;;;;;;10.57;6.75;;;;;;;;;;10095545;28;20061;-68
2022/10/10 09:20:55;;;;;;;9.00;7.30;;;;;;;;;;10097886;28;20711;-68
2022/10/10 09:25:59;;;;;;;14.65;8.13;;;;;;;;;;10103762;28;20045;-69
2022/10/10 09:30:54;;;;;;;17.55;7.57;;;;;;;;;;10100174;28;20068;-69
2022/10/10 09:35:49;;;;;;;12.85;6.97;;;;;;;;;;10104227;28;20048;-69
2022/10/10 09:40:53;;;;;;;11.85;6.63;;;;;;;;;;10102439;28;20114;-68
2022/10/10 09:45:52;;;;;;;11.70;7.35;;;;;;;;;;10120798;28;20114;-68
2022/10/10 09:51:05;;;;;;;8.90;6.93;;;;;;;;;;10104805;28;20053;-68
2022/10/10 09:55:58;;;;;;;10.85;6.15;;;;;;;;;;10101424;28;20053;-68
2022/10/10 10:00:55;;;;;;;9.75;6.07;;;;;;;;;;10083736;28;20485;-68
2022/10/10 10:05:56;;;;;;;13.45;6.50;;;;;;;;;;10092705;28;20077;-69
2022/10/10 10:10:49;;;;;;;7.15;6.35;;;;;;;;;;10094274;28;20408;-68
2022/10/10 10:15:48;;;;;;;9.48;7.00;;;;;;;;;;10098490;28;20061;-68
2022/10/10 10:20:50;;;;;;;13.98;7.45;;;;;;;;;;10115766;28;20080;-67
2022/10/10 10:25:44;;;;;;;10.40;6.75;;;;;;;;;;10103283;28;20049;-67
2022/10/10 10:30:41;;;;;;;10.10;7.10;;;;;;;;;;10104766;28;20091;-66
2022/10/10 10:35:42;;;;;;;14.60;6.88;;;;;;;;;;10088004;28;20107;-67
2022/10/10 10:40:42;;;;;;;7.78;6.82;;;;;;;;;;10096281;28;20064;-67
2022/10/10 10:46:10;;;;;;;12.25;6.63;;;;;;;;;;10098853;28;20046;-67
2022/10/10 10:51:15;;;;;;;18.73;7.38;;;;;;;;;;10103288;28;20053;-69
2022/10/10 10:56:14;;;;;;;9.07;7.53;;;;;;;;;;10101746;28;20056;-69
2022/10/10 11:01:34;;;;;;;9.43;6.93;;;;;;;;;;10104344;28;20056;-70
2022/10/10 11:07:14;;;;;;;21.02;7.53;;;;;;;;;;10101759;28;20094;-69
2022/10/10 11:12:30;;;;;;;9.68;6.07;;;;;;;;;;10120532;28;20087;-71
2022/10/10 11:17:48;;;;;;;11.65;7.25;;;;;;;;;;10103253;28;20528;-68
2022/10/10 11:22:47;;;;;;;10.20;7.47;;;;;;;;;;10101490;28;20057;-69
2022/10/10 11:27:51;;;;;;;10.13;7.18;;;;;;;;;;10098055;28;20135;-69
2022/10/10 11:33:00;;;;;;;15.10;6.97;;;;;;;;;;10117331;28;20044;-69
2022/10/10 11:38:00;;;;;;;15.10;7.18;;;;;;;;;;10099604;28;20091;-68
2022/10/10 11:43:04;;;;;;;14.13;7.20;;;;;;;;;;10090264;28;20042;-69
2022/10/10 11:48:09;;;;;;;14.25;7.53;;;;;;;;;;10094438;28;20052;-69
2022/10/10 11:53:27;;;;;;;17.58;7.97;;;;;;;;;;10096078;28;20783;-69
2022/10/10 11:58:34;;;;;;;18.92;6.50;;;;;;;;;;10102002;28;20055;-70
2022/10/10 12:03:27;;;;;;;14.52;8.02;;;;;;;;;;10093946;28;20081;-70
2022/10/10 12:08:25;;;;;;;11.15;6.95;;;;;;;;;;10098674;28;20049;-68
2022/10/10 12:13:44;;;;;;;13.07;7.78;;;;;;;;;;10094155;28;20095;-73
2022/10/10 12:18:44;;;;;;;;;;;;;;;;;;10090341;28;20180;-68
2022/10/10 12:23:39;;;;;;;10.60;7.35;;;;;;;;;;10094838;28;20294;-68
2022/10/10 12:28:54;;;;;;;13.40;7.43;;;;;;;;;;10095400;28;20091;-70
2022/10/10 12:34:09;;;;;;;10.85;6.90;;;;;;;;;;10083568;28;20046;-68
2022/10/10 12:39:07;;;;;;;9.32;7.72;;;;;;;;;;10093460;28;20148;-67
2022/10/10 12:44:03;;;;;;;10.98;8.25;;;;;;;;;;10102625;28;20055;-68
2022/10/10 12:49:18;;;;;;;9.63;6.85;;;;;;;;;;10097506;28;20480;-69
2022/10/10 12:54:22;;;;;;;11.70;7.10;;;;;;;;;;10101871;28;20045;-68
2022/10/10 12:59:22;;;;;;;13.38;7.63;;;;;;;;;;10089402;28;20049;-68
2022/10/10 13:04:16;;;;;;;10.55;7.45;;;;;;;;;;10094511;28;20053;-68
2022/10/10 13:09:10;;;;;;;12.57;7.93;;;;;;;;;;10102093;28;20094;-68
2022/10/10 13:14:08;;;;;;;13.02;7.53;;;;;;;;;;10090717;28;20378;-68
2022/10/10 13:19:01;;;;;;;9.25;6.82;;;;;;;;;;10091980;28;20469;-68
2022/10/10 13:24:07;;;;;;;8.15;6.68;;;;;;;;;;10099374;28;20136;-68
2022/10/10 13:29:15;;;;;;;13.88;8.20;;;;;;;;;;10099518;28;20053;-68
2022/10/10 13:34:14;;;;;;;12.25;6.05;;;;;;;;;;10100593;28;20057;-67
2022/10/10 13:39:15;;;;;;;14.55;7.13;;;;;;;;;;10104604;28;20061;-68
2022/10/10 13:44:19;;;;;;;12.77;7.47;;;;;;;;;;10097013;28;20044;-68
2022/10/10 13:49:18;;;;;;;10.32;7.35;;;;;;;;;;10105639;28;20045;-68
2022/10/10 13:54:34;;;;;;;10.13;6.93;;;;;;;;;;10094041;28;20057;-68
2022/10/10 13:59:28;;;;;;;14.23;6.65;;;;;;;;;;10105175;28;20488;-68
2022/10/10 14:04:24;;;;;;;12.73;7.18;;;;;;;;;;10110373;28;20411;-67
2022/10/10 14:09:44;;;;;;;11.35;7.18;;;;;;;;;;10106165;28;20037;-66
2022/10/10 14:14:47;;;;;;;11.98;7.60;;;;;;;;;;10120399;28;20061;-66
2022/10/10 14:19:41;;;;;;;11.50;7.78;;;;;;;;;;10125462;28;20055;-66
2022/10/10 14:24:35;;;;;;;11.43;6.82;;;;;;;;;;10128829;28;20499;-66
2022/10/10 14:29:28;;;;;;;14.95;7.47;;;;;;;;;;10129998;28;20045;-67
2022/10/10 14:34:22;;;;;;;12.02;7.80;;;;;;;;;;10122627;28;20551;-67
2022/10/10 14:39:17;;;;;;;9.35;7.15;;;;;;;;;;10128394;28;20048;-66
2022/10/10 14:44:10;;;;;;;13.90;9.02;;;;;;;;;;10122410;28;20048;-67
2022/10/10 14:49:04;;;;;;;11.90;8.10;;;;;;;;;;10129430;28;20091;-67
2022/10/10 14:54:09;;;;;;;11.95;8.35;;;;;;;;;;10113098;28;20094;-67
2022/10/10 14:59:11;;;;;;;13.45;8.25;;;;;;;;;;10114896;28;20044;-67
2022/10/10 15:04:05;;;;;;;10.85;7.95;;;;;;;;;;10125229;28;20091;-67
2022/10/10 15:08:59;;;;;;;11.30;8.48;;;;;;;;;;10131988;28;20044;-67
2022/10/10 15:13:53;;;;;;;12.13;8.35;;;;;;;;;;10118672;28;20053;-66
2022/10/10 15:18:47;;;;;;;10.30;8.48;;;;;;;;;;10113533;28;20061;-67
2022/10/10 15:23:46;;;;;;;15.60;8.75;;;;;;;;;;10124634;28;20053;-66
2022/10/10 15:28:40;;;;;;;12.75;9.73;;;;;;;;;;10122428;28;20071;-66
2022/10/10 15:33:35;;;;;;;11.98;9.00;;;;;;;;;;10117402;28;20083;-67
2022/10/10 15:38:28;;;;;;;15.68;9.88;;;;;;;;;;10114861;28;20135;-67
2022/10/10 15:43:21;;;;;;;11.63;10.05;;;;;;;;;;10119631;28;20053;-67
2022/10/10 15:48:16;;;;;;;13.85;9.07;;;;;;;;;;10119983;28;20045;-67
2022/10/10 15:53:11;;;;;;;11.32;8.93;;;;;;;;;;10110268;28;20072;-67
2022/10/10 15:58:04;;;;;;;18.35;10.02;;;;;;;;;;10116495;28;20055;-67
2022/10/10 16:02:59;;;;;;;12.82;10.57;;;;;;;;;;10127793;28;20053;-66
2022/10/10 16:07:53;;;;;;;12.57;10.60;;;;;;;;;;10125321;28;20049;-66
2022/10/10 16:12:46;;;;;;;13.85;9.63;;;;;;;;;;10122064;28;20123;-66
2022/10/10 16:17:40;;;;;;;14.90;10.73;;;;;;;;;;10114110;28;20466;-66
2022/10/10 16:22:34;;;;;;;15.75;10.98;;;;;;;;;;10119741;28;20040;-67
2022/10/10 16:27:27;;;;;;;15.40;11.40;;;;;;;;;;10114940;28;20140;-67
2022/10/10 16:32:23;;;;;;;15.20;9.50;;;;;;;;;;10108935;28;20135;-66
2022/10/10 16:37:18;;;;;;;15.13;9.75;;;;;;;;;;10108677;28;20107;-67
2022/10/10 16:42:14;;;;;;;14.38;10.68;;;;;;;;;;10116445;28;20483;-62
2022/10/10 16:47:10;;;;;;;19.00;10.02;;;;;;;;;;10114789;28;20538;-63
2022/10/10 16:52:04;;;;;;;19.05;11.25;;;;;;;;;;10112449;28;20393;-63
2022/10/10 16:56:58;;;;;;;27.73;12.15;;;;;;;;;;10121577;28;20049;-61
2022/10/10 17:01:53;;;;;;;28.73;11.90;;;;;;;;;;10116547;28;20144;-61
2022/10/10 17:06:50;;;;;;;21.10;12.68;;;;;;;;;;10110169;28;20075;-61
2022/10/10 17:11:46;;;;;;;14.43;12.25;;;;;;;;;;10116160;28;20503;-61
2022/10/10 17:16:44;;;;;;;16.13;12.27;;;;;;;;;;10108473;28;20064;-62
2022/10/10 17:22:06;;;;;;;17.75;13.35;;;;;;;;;;10100055;28;20059;-63
2022/10/10 17:27:05;;;;;;;14.90;12.48;;;;;;;;;;10103322;28;20053;-62
2022/10/10 17:32:04;;;;;;;18.75;12.73;;;;;;;;;;10111874;28;20098;-63
2022/10/10 17:37:03;;;;;;;21.70;12.07;;;;;;;;;;10109724;28;20052;-62
2022/10/10 17:42:03;;;;;;;15.73;12.13;;;;;;;;;;10110016;28;20110;-62
2022/10/10 17:46:58;;;;;;;17.58;13.02;;;;;;;;;;10116958;28;20052;-62
2022/10/10 17:51:58;;;;;;;17.40;12.00;;;;;;;;;;10103074;28;20512;-64
2022/10/10 17:56:55;;;;;;;20.65;13.13;;;;;;;;;;10112651;28;20049;-62
2022/10/10 18:01:54;;;;;;;17.55;13.55;;;;;;;;;;10115525;28;20052;-62
2022/10/10 18:06:54;;;;;;;13.50;11.95;;;;;;;;;;10112153;28;20052;-64
2022/10/10 18:11:54;;;;;;;18.75;12.70;;;;;;;;;;10101596;28;20045;-62
2022/10/10 18:16:57;;;;;;;15.40;12.88;;;;;;;;;;10118456;28;20093;-62
2022/10/10 18:21:57;;;;;;;18.15;11.57;;;;;;;;;;10115802;28;20189;-62
2022/10/10 18:27:00;;;;;;;21.52;12.43;;;;;;;;;;10119927;28;20053;-62
2022/10/10 18:31:58;;;;;;;21.23;14.63;;;;;;;;;;10121036;28;20132;-62
2022/10/10 18:36:57;;;;;;;16.80;12.27;;;;;;;;;;10113343;28;20045;-63
2022/10/10 18:41:51;;;;;;;16.20;12.85;;;;;;;;;;10113922;28;20131;-63
2022/10/10 18:46:46;;;;;;;18.98;13.25;;;;;;;;;;10112229;28;20045;-66
2022/10/10 18:51:41;;;;;;;20.55;14.27;;;;;;;;;;10110282;28;20044;-66
2022/10/10 18:56:36;;;;;;;33.60;13.98;;;;;;;;;;10121877;28;20045;-66
2022/10/10 19:01:34;;;;;;;18.85;14.27;;;;;;;;;;10110456;28;20033;-67
2022/10/10 19:06:29;;;;;;;18.95;14.18;;;;;;;;;;10128240;28;20419;-66
2022/10/10 19:11:28;;;;;;;19.15;16.50;;;;;;;;;;10112767;28;20326;-67
2022/10/10 19:16:22;;;;;;;17.85;13.43;;;;;;;;;;10119864;28;20084;-67
2022/10/10 19:21:16;;;;;;;22.70;12.63;;;;;;;;;;10110007;28;20045;-66
2022/10/10 19:26:12;;;;;;;19.38;12.98;;;;;;;;;;10116248;28;20051;-67
2022/10/10 19:31:10;;;;;;;21.25;12.13;;;;;;;;;;10113608;28;20049;-66
2022/10/10 19:36:08;;;;;;;19.60;14.13;;;;;;;;;;10121432;28;20045;-66
2022/10/10 19:41:05;;;;;;;33.65;14.50;;;;;;;;;;10110406;28;20053;-66
2022/10/10 19:46:03;;;;;;;15.75;12.93;;;;;;;;;;10110104;28;20052;-67
2022/10/10 19:50:58;;;;;;;16.00;13.73;;;;;;;;;;10112917;28;20143;-67
2022/10/10 19:56:00;;;;;;;18.92;14.48;;;;;;;;;;10107906;28;20514;-67
2022/10/10 20:00:54;;;;;;;20.35;14.00;;;;;;;;;;10111745;28;20473;-67
2022/10/10 20:05:47;;;;;;;19.00;13.65;;;;;;;;;;10110272;28;20088;-67
2022/10/10 20:10:41;;;;;;;21.80;13.95;;;;;;;;;;10113474;28;20579;-67
2022/10/10 20:15:41;;;;;;;18.23;14.85;;;;;;;;;;10099581;28;20110;-68
2022/10/10 20:20:41;;;;;;;20.35;15.50;;;;;;;;;;10097583;28;20514;-70
2022/10/10 20:25:38;;;;;;;19.35;14.93;;;;;;;;;;10104973;28;20158;-71
2022/10/10 20:30:32;;;;;;;22.65;14.82;;;;;;;;;;10113570;28;20127;-68
2022/10/10 20:35:26;;;;;;;20.63;14.95;;;;;;;;;;10101100;28;20048;-70
2022/10/10 20:40:20;;;;;;;23.92;15.20;;;;;;;;;;10096076;28;20045;-70
2022/10/10 20:45:13;;;;;;;18.77;14.38;;;;;;;;;;10095828;28;20501;-69
2022/10/10 20:50:07;;;;;;;21.45;15.85;;;;;;;;;;10096905;28;20057;-70
2022/10/10 20:55:00;;;;;;;20.50;15.07;;;;;;;;;;10096262;28;20091;-70
2022/10/10 20:59:56;;;;;;;19.63;15.23;;;;;;;;;;10099167;28;20057;-70
2022/10/10 21:04:53;;;;;;;22.02;17.20;;;;;;;;;;10095810;28;20419;-70
2022/10/10 21:09:53;;;;;;;26.02;16.20;;;;;;;;;;10097143;28;20049;-71
2022/10/10 21:14:52;;;;;;;19.13;15.95;;;;;;;;;;10097843;28;20205;-71
2022/10/10 21:19:49;;;;;;;23.00;17.13;;;;;;;;;;10096280;28;20629;-71
2022/10/10 21:24:44;;;;;;;27.58;17.23;;;;;;;;;;10092977;28;20049;-69
2022/10/10 21:29:40;;;;;;;32.55;16.73;;;;;;;;;;10097073;28;20161;-68
2022/10/10 21:34:35;;;;;;;20.98;16.52;;;;;;;;;;10093319;28;20048;-68
2022/10/10 21:39:29;;;;;;;21.80;17.35;;;;;;;;;;10098291;28;20052;-68
2022/10/10 21:44:22;;;;;;;22.92;16.48;;;;;;;;;;10084127;28;20044;-68
2022/10/10 21:49:16;;;;;;;25.15;17.75;;;;;;;;;;10083021;28;20052;-68
2022/10/10 21:54:11;;;;;;;21.52;16.83;;;;;;;;;;10095192;28;20049;-68
2022/10/10 21:59:04;;;;;;;21.00;17.27;;;;;;;;;;10096855;28;20057;-68
2022/10/10 22:03:58;;;;;;;25.20;16.58;;;;;;;;;;10093788;28;20056;-69
2022/10/10 22:08:55;;;;;;;24.95;16.45;;;;;;;;;;10099472;28;20385;-70
2022/10/10 22:13:49;;;;;;;26.52;17.17;;;;;;;;;;10102138;28;20372;-67
2022/10/10 22:18:41;;;;;;;22.77;17.02;;;;;;;;;;10095605;28;20475;-68
2022/10/10 22:23:36;;;;;;;28.02;17.80;;;;;;;;;;10095301;28;20049;-68
2022/10/10 22:28:30;;;;;;;22.70;18.70;;;;;;;;;;10097908;28;20048;-67
2022/10/10 22:33:25;;;;;;;23.90;16.85;;;;;;;;;;10100375;28;20059;-67
2022/10/10 22:38:18;;;;;;;24.80;16.02;;;;;;;;;;10099024;28;20472;-68
2022/10/10 22:43:12;;;;;;;20.48;17.20;;;;;;;;;;10104999;28;20061;-68
2022/10/10 22:48:07;;;;;;;19.40;16.52;;;;;;;;;;10105098;28;20053;-68
2022/10/10 22:53:01;;;;;;;30.17;18.65;;;;;;;;;;10099812;28;20056;-68
2022/10/10 22:57:53;;;;;;;21.75;17.65;;;;;;;;;;10104558;28;20068;-68
2022/10/10 23:02:47;;;;;;;21.88;16.70;;;;;;;;;;10102354;28;20439;-68
2022/10/10 23:07:41;;;;;;;23.50;16.90;;;;;;;;;;10104293;28;20080;-68
2022/10/10 23:12:35;;;;;;;22.00;18.35;;;;;;;;;;10101947;28;20071;-69
2022/10/10 23:17:29;;;;;;;29.98;18.13;;;;;;;;;;10105858;28;20071;-69
2022/10/10 23:22:22;;;;;;;20.50;17.25;;;;;;;;;;10100001;28;20052;-68
2022/10/10 23:27:17;;;;;;;23.65;18.17;;;;;;;;;;10101277;28;20079;-69
2022/10/10 23:32:11;;;;;;;27.55;18.92;;;;;;;;;;10097655;28;20048;-69
2022/10/10 23:37:05;;;;;;;24.13;16.55;;;;;;;;;;10101604;28;20419;-69
2022/10/10 23:41:59;;;;;;;26.58;17.33;;;;;;;;;;10104135;28;20495;-69
2022/10/10 23:46:53;;;;;;;20.35;16.50;;;;;;;;;;10102082;28;20049;-68
2022/10/10 23:51:47;;;;;;;21.65;17.17;;;;;;;;;;10104426;28;20444;-69
2022/10/10 23:56:41;;;;;;;23.13;16.70;;;;;;;;;;10094607;28;20102;-68
